Time;durP1;ratioP1;P1;durP2;ratioP2;P2;SDS_P1;SDS_P2;PMS_P1;PMS_P2;Temp;Humidity;BMP_temperature;BMP_pressure;BME280_temperature;BME280_humidity;BME280_pressure;Samples;Min_cycle;Max_cycle;Signal;HPM_P1;HPM_P2
2021/12/21 00:00:14;;;;;;;13.68;10.52;;;;;;;;;;5046121;28;20617;-77
2021/12/21 00:02:44;;;;;;;13.30;8.90;;;;;;;;;;5047438;28;20199;-76
2021/12/21 00:05:17;;;;;;;12.80;9.32;;;;;;;;;;5049261;28;20567;-77
2021/12/21 00:07:44;;;;;;;14.30;9.70;;;;;;;;;;5045372;28;20199;-73
2021/12/21 00:10:12;;;;;;;15.00;10.48;;;;;;;;;;5049142;28;20191;-75
2021/12/21 00:12:47;;;;;;;14.02;9.45;;;;;;;;;;5050727;28;20199;-77
2021/12/21 00:15:22;;;;;;;14.82;10.13;;;;;;;;;;5050240;28;20272;-77
2021/12/21 00:17:56;;;;;;;15.98;10.57;;;;;;;;;;5045857;28;20200;-77
2021/12/21 00:20:49;;;;;;;14.85;9.52;;;;;;;;;;5048756;28;20201;-77
2021/12/21 00:23:34;;;;;;;14.45;10.52;;;;;;;;;;5050547;28;20202;-77
2021/12/21 00:26:02;;;;;;;13.10;10.45;;;;;;;;;;5049132;28;20233;-76
2021/12/21 00:28:33;;;;;;;16.23;10.25;;;;;;;;;;5049757;28;20230;-76
2021/12/21 00:31:00;;;;;;;14.02;10.90;;;;;;;;;;5050081;28;20566;-76
2021/12/21 00:33:29;;;;;;;14.90;10.40;;;;;;;;;;5040972;28;20203;-77
2021/12/21 00:35:56;;;;;;;17.80;10.88;;;;;;;;;;5048757;28;20230;-77
2021/12/21 00:38:23;;;;;;;17.48;9.90;;;;;;;;;;5049008;28;20199;-76
2021/12/21 00:40:50;;;;;;;14.80;9.93;;;;;;;;;;5049915;28;20199;-77
2021/12/21 00:43:17;;;;;;;16.02;10.00;;;;;;;;;;5050724;28;20199;-77
2021/12/21 00:45:44;;;;;;;17.73;12.60;;;;;;;;;;5049864;28;20191;-77
2021/12/21 00:48:11;;;;;;;17.80;10.52;;;;;;;;;;5047433;28;20214;-77
2021/12/21 00:50:40;;;;;;;16.20;9.48;;;;;;;;;;5050642;28;20555;-77
2021/12/21 00:53:07;;;;;;;12.45;8.77;;;;;;;;;;5050009;28;20535;-77
2021/12/21 00:55:34;;;;;;;15.98;11.25;;;;;;;;;;5041931;28;20242;-77
2021/12/21 00:58:01;;;;;;;15.93;10.65;;;;;;;;;;5049698;28;20194;-76
2021/12/21 01:00:29;;;;;;;15.48;9.85;;;;;;;;;;5041994;28;20223;-77
2021/12/21 01:03:00;;;;;;;18.15;11.77;;;;;;;;;;5049349;28;20198;-77
2021/12/21 01:05:33;;;;;;;17.38;10.50;;;;;;;;;;5049654;28;20664;-76
2021/12/21 01:08:04;;;;;;;15.35;10.15;;;;;;;;;;5056132;28;20778;-75
2021/12/21 01:10:51;;;;;;;14.60;10.35;;;;;;;;;;5044794;28;20272;-75
2021/12/21 01:13:33;;;;;;;14.68;10.88;;;;;;;;;;5043467;28;20198;-75
2021/12/21 01:16:12;;;;;;;15.93;10.55;;;;;;;;;;5045741;28;20587;-75
2021/12/21 01:18:53;;;;;;;15.02;11.52;;;;;;;;;;5046619;28;20357;-75
2021/12/21 01:21:24;;;;;;;16.63;10.85;;;;;;;;;;5049223;28;20630;-75
2021/12/21 01:24:09;;;;;;;14.52;10.95;;;;;;;;;;5042363;28;20206;-75
2021/12/21 01:26:47;;;;;;;15.63;10.40;;;;;;;;;;5047876;28;20222;-76
2021/12/21 01:29:23;;;;;;;16.35;10.73;;;;;;;;;;5049222;28;20685;-76
2021/12/21 01:31:58;;;;;;;17.77;11.85;;;;;;;;;;5049174;28;20207;-76
2021/12/21 01:34:37;;;;;;;14.10;10.25;;;;;;;;;;5039083;28;20210;-75
2021/12/21 01:37:10;;;;;;;19.30;11.30;;;;;;;;;;5047147;28;20199;-76
2021/12/21 01:42:33;;;;;;;14.48;10.77;;;;;;;;;;5051549;28;20210;-75
2021/12/21 01:50:30;;;;;;;12.88;9.70;;;;;;;;;;5052561;28;20198;-75
2021/12/21 01:52:57;;;;;;;15.20;11.05;;;;;;;;;;5053209;28;20199;-75
2021/12/21 01:55:25;;;;;;;16.38;10.60;;;;;;;;;;5046537;28;20276;-76
2021/12/21 01:57:52;;;;;;;16.38;11.70;;;;;;;;;;5052623;28;20637;-75
2021/12/21 02:00:20;;;;;;;19.27;11.98;;;;;;;;;;5051590;28;20222;-77
2021/12/21 02:02:47;;;;;;;14.68;10.27;;;;;;;;;;5049245;28;20260;-76
2021/12/21 02:05:14;;;;;;;18.33;11.57;;;;;;;;;;5042115;28;20201;-76
2021/12/21 02:07:41;;;;;;;15.55;10.43;;;;;;;;;;5044063;28;20198;-75
2021/12/21 02:10:09;;;;;;;17.13;11.60;;;;;;;;;;5043856;28;20198;-75
2021/12/21 02:12:37;;;;;;;17.05;11.70;;;;;;;;;;5052504;28;20198;-75
2021/12/21 02:15:05;;;;;;;16.90;10.60;;;;;;;;;;5051737;28;20221;-76
2021/12/21 02:20:37;;;;;;;19.15;12.35;;;;;;;;;;5041098;28;20209;-75
2021/12/21 02:23:08;;;;;;;16.20;10.65;;;;;;;;;;5050398;28;20225;-75
2021/12/21 02:28:45;;;;;;;21.77;11.13;;;;;;;;;;5033016;28;20190;-76
2021/12/21 02:31:13;;;;;;;16.65;10.75;;;;;;;;;;5041350;28;20207;-76
2021/12/21 02:33:40;;;;;;;19.55;11.90;;;;;;;;;;5042698;28;20253;-76
2021/12/21 02:36:09;;;;;;;14.80;10.30;;;;;;;;;;5051704;28;20246;-76
2021/12/21 02:38:36;;;;;;;18.52;12.82;;;;;;;;;;5049439;28;20605;-76
2021/12/21 02:41:03;;;;;;;18.52;11.77;;;;;;;;;;5044931;28;20198;-76
2021/12/21 02:43:32;;;;;;;18.83;12.57;;;;;;;;;;5042189;28;20209;-76
2021/12/21 02:45:59;;;;;;;17.50;11.73;;;;;;;;;;5051752;28;20207;-76
2021/12/21 02:48:26;;;;;;;20.45;12.75;;;;;;;;;;5051090;28;20206;-76
2021/12/21 02:50:54;;;;;;;16.90;11.32;;;;;;;;;;5051196;28;20195;-76
2021/12/21 02:53:22;;;;;;;17.33;12.20;;;;;;;;;;5047461;28;20209;-75
2021/12/21 02:55:49;;;;;;;20.00;12.63;;;;;;;;;;5047441;28;20563;-76
2021/12/21 02:58:17;;;;;;;19.27;12.80;;;;;;;;;;5045654;28;20199;-76
2021/12/21 03:00:44;;;;;;;19.95;12.50;;;;;;;;;;5050533;28;20210;-76
2021/12/21 03:03:13;;;;;;;17.40;11.45;;;;;;;;;;5037747;28;20199;-76
2021/12/21 03:05:45;;;;;;;18.30;12.70;;;;;;;;;;5050388;28;20198;-75
2021/12/21 03:08:17;;;;;;;17.65;11.35;;;;;;;;;;5051495;28;20210;-76
2021/12/21 03:11:00;;;;;;;19.77;12.18;;;;;;;;;;5048515;28;20206;-75
2021/12/21 03:16:12;;;;;;;20.55;11.65;;;;;;;;;;5046132;28;20692;-76
2021/12/21 03:18:39;;;;;;;17.88;13.10;;;;;;;;;;5049622;28;20199;-75
2021/12/21 03:21:06;;;;;;;18.65;11.23;;;;;;;;;;5046969;28;20195;-76
2021/12/21 03:23:33;;;;;;;18.00;11.82;;;;;;;;;;5050825;28;20655;-75
2021/12/21 03:26:01;;;;;;;17.75;11.65;;;;;;;;;;5051234;28;20217;-75
2021/12/21 03:28:29;;;;;;;18.35;12.70;;;;;;;;;;5051601;28;20578;-75
2021/12/21 03:30:56;;;;;;;17.17;11.90;;;;;;;;;;5051061;28;20207;-75
2021/12/21 03:33:23;;;;;;;17.15;11.55;;;;;;;;;;5049052;28;20195;-75
2021/12/21 03:35:50;;;;;;;19.05;12.05;;;;;;;;;;5051568;28;20700;-75
2021/12/21 03:38:17;;;;;;;19.20;12.20;;;;;;;;;;5050560;28;20594;-75
2021/12/21 03:40:44;;;;;;;20.55;13.25;;;;;;;;;;5047885;28;20686;-76
2021/12/21 03:43:13;;;;;;;14.68;10.75;;;;;;;;;;5050836;28;20199;-75
2021/12/21 03:45:48;;;;;;;21.23;13.15;;;;;;;;;;5049902;28;20194;-75
2021/12/21 03:48:16;;;;;;;19.45;11.63;;;;;;;;;;5047253;28;20671;-75
2021/12/21 03:50:43;;;;;;;14.95;10.95;;;;;;;;;;5031800;28;20261;-75
2021/12/21 03:53:10;;;;;;;14.45;11.05;;;;;;;;;;5054305;28;20520;-76
2021/12/21 03:55:37;;;;;;;16.92;11.02;;;;;;;;;;5053023;28;20230;-75
2021/12/21 03:58:04;;;;;;;17.73;11.38;;;;;;;;;;5056400;28;20194;-73
2021/12/21 04:00:32;;;;;;;17.08;11.30;;;;;;;;;;5043798;28;20233;-73
2021/12/21 04:02:59;;;;;;;13.68;9.88;;;;;;;;;;5055283;28;20206;-74
2021/12/21 04:05:26;;;;;;;17.05;11.30;;;;;;;;;;5054844;28;20194;-73
2021/12/21 04:07:54;;;;;;;17.55;10.70;;;;;;;;;;5054248;28;20194;-73
2021/12/21 04:10:21;;;;;;;15.00;10.30;;;;;;;;;;5057621;28;20585;-73
2021/12/21 04:12:48;;;;;;;14.75;10.55;;;;;;;;;;5050377;28;20574;-73
2021/12/21 04:15:16;;;;;;;12.95;9.52;;;;;;;;;;5050789;28;20199;-73
2021/12/21 04:17:45;;;;;;;14.75;10.63;;;;;;;;;;5048832;28;20290;-74
2021/12/21 04:20:12;;;;;;;13.82;9.95;;;;;;;;;;5055961;28;20202;-74
2021/12/21 04:22:39;;;;;;;12.77;10.02;;;;;;;;;;5051712;28;20238;-74
2021/12/21 04:25:07;;;;;;;12.13;9.55;;;;;;;;;;5050520;28;20195;-72
2021/12/21 04:27:34;;;;;;;15.13;10.32;;;;;;;;;;5043686;28;20200;-74
2021/12/21 04:30:01;;;;;;;12.10;10.00;;;;;;;;;;5035000;28;20658;-74
2021/12/21 04:32:28;;;;;;;14.80;10.20;;;;;;;;;;5047964;28;20210;-74
2021/12/21 04:34:57;;;;;;;12.57;8.43;;;;;;;;;;5039439;28;20206;-73
2021/12/21 04:37:25;;;;;;;12.43;10.25;;;;;;;;;;5043037;28;20225;-74
2021/12/21 04:39:59;;;;;;;12.25;9.48;;;;;;;;;;5042535;28;20195;-73
2021/12/21 04:42:26;;;;;;;10.80;8.88;;;;;;;;;;5049258;28;20194;-75
2021/12/21 04:44:53;;;;;;;13.43;9.55;;;;;;;;;;5049087;28;20570;-74
2021/12/21 04:47:20;;;;;;;12.90;9.48;;;;;;;;;;5049663;28;20605;-75
2021/12/21 04:49:47;;;;;;;9.52;7.93;;;;;;;;;;5031068;28;20639;-74
2021/12/21 04:52:16;;;;;;;15.30;10.20;;;;;;;;;;5046984;28;20202;-73
2021/12/21 04:54:43;;;;;;;11.05;8.68;;;;;;;;;;5045673;28;20203;-73
2021/12/21 04:57:10;;;;;;;10.63;9.15;;;;;;;;;;5049895;28;20218;-74
2021/12/21 04:59:37;;;;;;;10.50;8.40;;;;;;;;;;5049941;28;20222;-75
2021/12/21 05:02:04;;;;;;;10.77;8.18;;;;;;;;;;5048220;28;20211;-73
2021/12/21 05:04:31;;;;;;;12.75;8.43;;;;;;;;;;5050314;28;20210;-73
2021/12/21 05:06:58;;;;;;;10.23;8.20;;;;;;;;;;5047448;28;20190;-75
2021/12/21 05:09:27;;;;;;;8.95;7.75;;;;;;;;;;5042987;28;20190;-74
2021/12/21 05:12:00;;;;;;;14.00;8.88;;;;;;;;;;5050132;28;20706;-75
2021/12/21 05:14:28;;;;;;;11.70;9.32;;;;;;;;;;5051103;28;20605;-74
2021/12/21 05:16:55;;;;;;;10.07;8.32;;;;;;;;;;5053319;28;20315;-73
2021/12/21 05:19:22;;;;;;;9.82;6.55;;;;;;;;;;5053267;28;20228;-73
2021/12/21 05:21:49;;;;;;;10.77;8.68;;;;;;;;;;5053048;28;20214;-73
2021/12/21 05:24:16;;;;;;;10.38;8.65;;;;;;;;;;5052476;28;20195;-73
2021/12/21 05:26:44;;;;;;;11.45;8.35;;;;;;;;;;5048785;28;20676;-73
2021/12/21 05:29:12;;;;;;;11.05;8.73;;;;;;;;;;5053130;28;20195;-73
2021/12/21 05:31:39;;;;;;;11.88;9.07;;;;;;;;;;5053439;28;20203;-74
2021/12/21 05:34:06;;;;;;;9.82;8.55;;;;;;;;;;5046666;28;20199;-73
2021/12/21 05:36:33;;;;;;;11.32;8.55;;;;;;;;;;5052952;28;20222;-76
2021/12/21 05:39:04;;;;;;;8.60;7.70;;;;;;;;;;5046608;28;20204;-73
2021/12/21 05:41:46;;;;;;;10.00;8.13;;;;;;;;;;5039120;28;20209;-75
2021/12/21 05:44:14;;;;;;;10.20;7.80;;;;;;;;;;5048010;28;20468;-72
2021/12/21 05:46:42;;;;;;;10.55;7.95;;;;;;;;;;5047866;28;20191;-75
2021/12/21 05:49:09;;;;;;;8.77;7.75;;;;;;;;;;5046817;28;20468;-73
2021/12/21 05:51:36;;;;;;;9.80;8.25;;;;;;;;;;5052149;28;20678;-74
2021/12/21 05:54:04;;;;;;;10.77;8.65;;;;;;;;;;5049354;28;20195;-74
2021/12/21 05:56:31;;;;;;;10.10;8.63;;;;;;;;;;5049284;28;20229;-73
2021/12/21 05:59:00;;;;;;;11.50;8.30;;;;;;;;;;5049210;28;20194;-74
2021/12/21 06:01:28;;;;;;;9.48;7.35;;;;;;;;;;5048859;28;20218;-77
2021/12/21 06:03:55;;;;;;;9.95;8.20;;;;;;;;;;5045695;28;20203;-75
2021/12/21 06:06:22;;;;;;;8.00;6.78;;;;;;;;;;5052470;28;20203;-73
2021/12/21 06:08:52;;;;;;;11.60;8.50;;;;;;;;;;5047029;28;20196;-75
2021/12/21 06:11:21;;;;;;;9.10;7.55;;;;;;;;;;5036527;28;20286;-73
2021/12/21 06:14:11;;;;;;;8.30;7.13;;;;;;;;;;5052481;28;20289;-74
2021/12/21 06:25:35;;;;;;;9.07;7.35;;;;;;;;;;5050868;28;20225;-74
2021/12/21 06:28:02;;;;;;;11.88;8.65;;;;;;;;;;5046586;28;20193;-74
2021/12/21 06:30:30;;;;;;;9.05;7.68;;;;;;;;;;5051526;28;20214;-73
2021/12/21 06:32:59;;;;;;;8.93;7.10;;;;;;;;;;5049085;28;20210;-73
2021/12/21 06:35:26;;;;;;;9.20;8.20;;;;;;;;;;5052654;28;20562;-73
2021/12/21 06:37:53;;;;;;;10.43;7.75;;;;;;;;;;5050403;28;20702;-73
2021/12/21 06:40:21;;;;;;;10.48;8.23;;;;;;;;;;5039247;28;20206;-74
2021/12/21 06:42:50;;;;;;;9.07;7.97;;;;;;;;;;5037908;28;20825;-73
2021/12/21 06:45:28;;;;;;;11.20;7.78;;;;;;;;;;5052049;28;20663;-73
2021/12/21 06:53:27;;;;;;;8.85;7.40;;;;;;;;;;5049871;28;20326;-74
2021/12/21 06:55:54;;;;;;;9.63;8.23;;;;;;;;;;5032642;28;20681;-73
2021/12/21 06:58:21;;;;;;;9.02;7.53;;;;;;;;;;5050282;28;20688;-75
2021/12/21 07:00:49;;;;;;;10.02;8.02;;;;;;;;;;5050169;28;20211;-74
2021/12/21 07:03:16;;;;;;;11.35;7.47;;;;;;;;;;5050479;28;20191;-73
2021/12/21 07:05:45;;;;;;;9.35;7.95;;;;;;;;;;5051965;28;20202;-75
2021/12/21 07:08:16;;;;;;;10.50;7.70;;;;;;;;;;5046545;28;20199;-75
2021/12/21 07:10:51;;;;;;;9.23;7.72;;;;;;;;;;5048529;28;20203;-75
2021/12/21 07:18:49;;;;;;;9.35;8.20;;;;;;;;;;5039906;28;20317;-74
2021/12/21 07:21:17;;;;;;;9.57;8.40;;;;;;;;;;5051120;28;20199;-76
2021/12/21 07:23:44;;;;;;;11.23;8.68;;;;;;;;;;5042169;28;21509;-75
2021/12/21 07:26:11;;;;;;;8.60;7.20;;;;;;;;;;5051780;28;20211;-75
2021/12/21 07:28:38;;;;;;;9.43;7.28;;;;;;;;;;5050838;28;20195;-75
2021/12/21 07:31:05;;;;;;;9.80;7.43;;;;;;;;;;5048886;28;20203;-76
2021/12/21 07:33:32;;;;;;;8.65;7.60;;;;;;;;;;5051541;28;20202;-75
2021/12/21 07:35:59;;;;;;;11.30;7.57;;;;;;;;;;5059800;28;20633;-76
2021/12/21 07:38:30;;;;;;;10.60;7.82;;;;;;;;;;5049074;28;20222;-76
2021/12/21 07:40:57;;;;;;;9.20;7.53;;;;;;;;;;5053120;28;20285;-75
2021/12/21 07:43:25;;;;;;;9.00;7.65;;;;;;;;;;5050505;28;20615;-75
2021/12/21 07:45:52;;;;;;;8.43;6.82;;;;;;;;;;5051273;28;20202;-76
2021/12/21 07:48:20;;;;;;;10.93;7.47;;;;;;;;;;5050060;28;20234;-75
2021/12/21 07:50:47;;;;;;;6.85;6.15;;;;;;;;;;5049273;28;20191;-75
2021/12/21 07:53:14;;;;;;;9.18;7.38;;;;;;;;;;5050950;28;20271;-77
2021/12/21 07:55:43;;;;;;;10.35;8.38;;;;;;;;;;5052834;28;20210;-75
2021/12/21 07:58:10;;;;;;;13.20;8.07;;;;;;;;;;5056253;28;20679;-76
2021/12/21 08:00:38;;;;;;;8.48;7.53;;;;;;;;;;5048265;28;20234;-75
2021/12/21 08:03:05;;;;;;;8.65;7.75;;;;;;;;;;5035596;28;20644;-74
2021/12/21 08:05:34;;;;;;;10.82;8.65;;;;;;;;;;5054930;28;20198;-80
2021/12/21 08:08:10;;;;;;;10.98;8.63;;;;;;;;;;5045327;28;20270;-77
2021/12/21 08:10:45;;;;;;;9.60;8.05;;;;;;;;;;5043761;28;20454;-76
2021/12/21 08:13:14;;;;;;;13.13;9.15;;;;;;;;;;5047013;28;20205;-77
2021/12/21 08:15:41;;;;;;;11.38;8.32;;;;;;;;;;5047203;28;20273;-75
2021/12/21 08:18:08;;;;;;;8.60;7.68;;;;;;;;;;5040737;28;20658;-76
2021/12/21 08:20:36;;;;;;;9.40;8.35;;;;;;;;;;5041851;28;20191;-76
2021/12/21 08:23:03;;;;;;;8.65;7.63;;;;;;;;;;5049738;28;20302;-76
2021/12/21 08:25:30;;;;;;;11.25;8.57;;;;;;;;;;5045315;28;20215;-78
2021/12/21 08:27:58;;;;;;;10.02;7.43;;;;;;;;;;5045747;28;20206;-76
2021/12/21 08:30:27;;;;;;;10.38;7.63;;;;;;;;;;5049681;28;20201;-77
2021/12/21 08:32:54;;;;;;;9.98;7.10;;;;;;;;;;5046603;28;20191;-76
2021/12/21 08:35:21;;;;;;;12.00;9.02;;;;;;;;;;5050247;28;21064;-78
2021/12/21 08:37:52;;;;;;;9.55;8.02;;;;;;;;;;5048120;28;20712;-76
2021/12/21 08:40:19;;;;;;;10.30;8.55;;;;;;;;;;5044659;28;20253;-78
2021/12/21 08:42:48;;;;;;;9.90;8.52;;;;;;;;;;5045118;28;20202;-76
2021/12/21 08:45:15;;;;;;;10.40;8.65;;;;;;;;;;5045467;28;20270;-75
2021/12/21 08:47:43;;;;;;;10.95;7.95;;;;;;;;;;5048091;28;20195;-76
2021/12/21 08:50:12;;;;;;;10.60;8.38;;;;;;;;;;5051307;28;20203;-75
2021/12/21 08:52:39;;;;;;;10.88;7.78;;;;;;;;;;5053629;28;20650;-76
2021/12/21 08:55:07;;;;;;;9.00;7.90;;;;;;;;;;5051213;28;20198;-75
2021/12/21 08:57:36;;;;;;;11.43;8.73;;;;;;;;;;5049534;28;20222;-75
2021/12/21 09:00:03;;;;;;;12.60;8.82;;;;;;;;;;5049235;28;20314;-76
2021/12/21 09:02:35;;;;;;;10.23;8.00;;;;;;;;;;5042521;28;20199;-77
2021/12/21 09:05:07;;;;;;;10.13;8.13;;;;;;;;;;5050998;28;20681;-75
2021/12/21 09:07:34;;;;;;;10.70;7.95;;;;;;;;;;5050361;28;20681;-77
2021/12/21 09:10:01;;;;;;;10.93;8.98;;;;;;;;;;5050632;28;20279;-75
2021/12/21 09:12:28;;;;;;;10.88;7.78;;;;;;;;;;5053848;28;20569;-75
2021/12/21 09:14:55;;;;;;;10.98;8.25;;;;;;;;;;5052723;28;20543;-76
2021/12/21 09:17:24;;;;;;;10.93;8.55;;;;;;;;;;5052615;28;20616;-75
2021/12/21 09:19:51;;;;;;;10.13;8.40;;;;;;;;;;5042268;28;20206;-75
2021/12/21 09:22:20;;;;;;;9.57;7.78;;;;;;;;;;5056098;28;20205;-75
2021/12/21 09:24:47;;;;;;;8.73;7.30;;;;;;;;;;5049902;28;20199;-74
2021/12/21 09:27:15;;;;;;;11.52;9.35;;;;;;;;;;5053891;28;20210;-74
2021/12/21 09:29:43;;;;;;;12.07;9.70;;;;;;;;;;5052954;28;20305;-74
2021/12/21 09:32:13;;;;;;;10.48;8.13;;;;;;;;;;5051735;28;20210;-73
2021/12/21 09:34:40;;;;;;;9.18;7.80;;;;;;;;;;5053188;28;20544;-74
2021/12/21 09:37:08;;;;;;;9.52;7.95;;;;;;;;;;5053824;28;20674;-74
2021/12/21 09:39:37;;;;;;;11.75;8.85;;;;;;;;;;5046669;28;20688;-73
2021/12/21 09:42:04;;;;;;;9.48;8.55;;;;;;;;;;5051507;28;20705;-75
2021/12/21 09:44:31;;;;;;;10.75;7.97;;;;;;;;;;5054326;28;20207;-74
2021/12/21 09:46:59;;;;;;;10.82;8.32;;;;;;;;;;5049528;28;20195;-74
2021/12/21 09:49:26;;;;;;;9.18;7.55;;;;;;;;;;5055259;28;20247;-74
2021/12/21 09:51:54;;;;;;;9.93;8.30;;;;;;;;;;5054917;28;20202;-75
2021/12/21 09:54:21;;;;;;;8.73;7.40;;;;;;;;;;5038309;28;20222;-74
2021/12/21 09:56:49;;;;;;;15.65;8.75;;;;;;;;;;5047847;28;20203;-76
2021/12/21 09:59:16;;;;;;;9.65;8.10;;;;;;;;;;5054376;28;20219;-74
2021/12/21 10:01:43;;;;;;;9.63;8.63;;;;;;;;;;5052561;28;20673;-74
2021/12/21 10:04:10;;;;;;;11.88;9.02;;;;;;;;;;5051487;28;20642;-74
2021/12/21 10:06:43;;;;;;;15.65;11.13;;;;;;;;;;5052290;28;20207;-73
2021/12/21 10:09:10;;;;;;;13.38;9.60;;;;;;;;;;5048165;28;20197;-75
2021/12/21 10:11:42;;;;;;;15.65;10.98;;;;;;;;;;5053276;28;20211;-74
2021/12/21 10:14:11;;;;;;;11.60;8.88;;;;;;;;;;5053554;28;20576;-74
2021/12/21 10:16:38;;;;;;;11.05;8.05;;;;;;;;;;5049133;28;20202;-74
2021/12/21 10:19:06;;;;;;;12.15;8.85;;;;;;;;;;5044729;28;20693;-74
2021/12/21 10:21:33;;;;;;;14.80;9.18;;;;;;;;;;5058188;28;20573;-76
2021/12/21 10:24:00;;;;;;;10.20;8.10;;;;;;;;;;5054613;28;20201;-74
2021/12/21 10:26:29;;;;;;;14.77;9.25;;;;;;;;;;5051264;28;20198;-74
2021/12/21 10:29:00;;;;;;;11.00;8.77;;;;;;;;;;5054229;28;20206;-74
2021/12/21 10:31:29;;;;;;;12.90;11.15;;;;;;;;;;5051305;28;20293;-74
2021/12/21 10:33:58;;;;;;;10.05;8.23;;;;;;;;;;5049389;28;20196;-74
2021/12/21 10:36:26;;;;;;;12.18;9.75;;;;;;;;;;5050765;28;20210;-74
2021/12/21 10:38:55;;;;;;;11.90;8.88;;;;;;;;;;5052362;28;20616;-75
2021/12/21 10:41:23;;;;;;;13.32;8.68;;;;;;;;;;5056349;28;20198;-75
2021/12/21 10:43:56;;;;;;;8.60;7.53;;;;;;;;;;5053122;28;20198;-75
2021/12/21 10:46:23;;;;;;;10.32;8.95;;;;;;;;;;5049313;28;20197;-74
2021/12/21 10:48:51;;;;;;;11.65;8.88;;;;;;;;;;5049483;28;20760;-73
2021/12/21 10:51:19;;;;;;;11.18;8.63;;;;;;;;;;5058557;28;20561;-74
2021/12/21 10:53:49;;;;;;;11.25;8.90;;;;;;;;;;5059602;28;20575;-73
2021/12/21 10:56:17;;;;;;;11.55;8.45;;;;;;;;;;5052594;28;20202;-73
2021/12/21 10:58:45;;;;;;;10.65;8.95;;;;;;;;;;5051443;28;20215;-74
2021/12/21 11:01:14;;;;;;;12.75;9.20;;;;;;;;;;5051980;28;20763;-75
2021/12/21 11:03:46;;;;;;;9.77;8.23;;;;;;;;;;5048990;28;20207;-73
2021/12/21 11:06:16;;;;;;;11.00;9.02;;;;;;;;;;5054188;28;20328;-74
2021/12/21 11:08:44;;;;;;;13.23;9.57;;;;;;;;;;5045378;28;20204;-74
2021/12/21 11:11:22;;;;;;;10.43;8.10;;;;;;;;;;5050573;28;20646;-72
2021/12/21 11:13:59;;;;;;;11.68;8.82;;;;;;;;;;5053519;28;20677;-73
2021/12/21 11:16:27;;;;;;;12.90;9.10;;;;;;;;;;5051058;28;20191;-73
2021/12/21 11:18:55;;;;;;;10.40;8.50;;;;;;;;;;5051389;28;20218;-75
2021/12/21 11:21:23;;;;;;;9.98;8.13;;;;;;;;;;5056357;28;20286;-74
2021/12/21 11:23:50;;;;;;;10.80;8.52;;;;;;;;;;5050667;28;20201;-75
2021/12/21 11:26:17;;;;;;;12.32;8.90;;;;;;;;;;5053284;28;20194;-75
2021/12/21 11:28:44;;;;;;;10.00;7.95;;;;;;;;;;5048099;28;20658;-75
2021/12/21 11:31:11;;;;;;;12.73;9.60;;;;;;;;;;5051285;28;20629;-74
2021/12/21 11:33:43;;;;;;;11.65;9.38;;;;;;;;;;5047083;28;20191;-74
2021/12/21 11:38:56;;;;;;;16.52;10.27;;;;;;;;;;5050795;28;20582;-74
2021/12/21 11:41:24;;;;;;;12.07;8.90;;;;;;;;;;5049056;28;20198;-73
2021/12/21 11:43:54;;;;;;;12.52;9.70;;;;;;;;;;5053860;28;20199;-73
2021/12/21 11:46:27;;;;;;;18.15;10.93;;;;;;;;;;5049547;28;20589;-73
2021/12/21 11:48:59;;;;;;;15.10;10.30;;;;;;;;;;5044169;28;20201;-73
2021/12/21 11:51:27;;;;;;;13.65;9.75;;;;;;;;;;5048924;28;20286;-75
2021/12/21 11:53:54;;;;;;;19.73;11.55;;;;;;;;;;5040629;28;20206;-74
2021/12/21 11:56:23;;;;;;;15.63;9.80;;;;;;;;;;5045439;28;20202;-73
2021/12/21 11:58:51;;;;;;;14.63;9.30;;;;;;;;;;5046386;28;20214;-73
2021/12/21 12:01:20;;;;;;;12.80;11.23;;;;;;;;;;5043351;28;20270;-74
2021/12/21 12:03:55;;;;;;;17.40;11.10;;;;;;;;;;5045917;28;20664;-76
2021/12/21 12:06:22;;;;;;;17.73;9.63;;;;;;;;;;5046383;28;20205;-73
2021/12/21 12:08:54;;;;;;;14.70;11.10;;;;;;;;;;5043927;28;20563;-73
2021/12/21 12:11:27;;;;;;;15.63;10.70;;;;;;;;;;5045735;28;20202;-73
2021/12/21 12:14:04;;;;;;;16.27;11.45;;;;;;;;;;5045342;28;20328;-74
2021/12/21 12:16:40;;;;;;;21.17;11.68;;;;;;;;;;5035746;28;20547;-73
2021/12/21 12:19:11;;;;;;;16.92;10.80;;;;;;;;;;5040546;28;20715;-73
2021/12/21 12:21:38;;;;;;;13.60;12.10;;;;;;;;;;5055446;28;20541;-75
2021/12/21 12:24:05;;;;;;;12.63;10.60;;;;;;;;;;5054261;28;20615;-73
2021/12/21 12:26:35;;;;;;;15.55;11.43;;;;;;;;;;5029066;28;20658;-74
2021/12/21 12:29:11;;;;;;;25.77;15.43;;;;;;;;;;5039329;28;22238;-73
2021/12/21 12:31:39;;;;;;;19.13;13.32;;;;;;;;;;5036325;28;20217;-75
2021/12/21 12:34:08;;;;;;;16.15;11.88;;;;;;;;;;5039572;28;20694;-74
2021/12/21 12:36:36;;;;;;;16.25;11.43;;;;;;;;;;5039054;28;20202;-73
2021/12/21 12:39:04;;;;;;;17.80;12.05;;;;;;;;;;5038636;28;20226;-73
2021/12/21 12:41:32;;;;;;;16.73;12.02;;;;;;;;;;5038281;28;20202;-73
2021/12/21 12:44:01;;;;;;;16.63;11.65;;;;;;;;;;5036820;28;20198;-73
2021/12/21 12:46:30;;;;;;;19.98;13.20;;;;;;;;;;5039573;28;20218;-73
2021/12/21 12:48:59;;;;;;;20.52;14.15;;;;;;;;;;5042875;28;20922;-73
2021/12/21 12:51:27;;;;;;;19.13;13.70;;;;;;;;;;5041029;28;20199;-73
2021/12/21 12:53:54;;;;;;;19.00;13.02;;;;;;;;;;5038118;28;20206;-74
2021/12/21 12:56:21;;;;;;;20.98;13.45;;;;;;;;;;5037334;28;20198;-73
2021/12/21 12:58:50;;;;;;;18.80;14.88;;;;;;;;;;5038177;28;20261;-74
2021/12/21 13:01:21;;;;;;;21.88;14.13;;;;;;;;;;5044477;28;20222;-75
2021/12/21 13:03:50;;;;;;;21.73;15.65;;;;;;;;;;5039299;28;20667;-73
2021/12/21 13:06:18;;;;;;;21.73;15.23;;;;;;;;;;5041231;28;20381;-73
2021/12/21 13:08:45;;;;;;;20.73;14.27;;;;;;;;;;5039777;28;20218;-73
2021/12/21 13:11:13;;;;;;;27.77;12.70;;;;;;;;;;5048081;28;20206;-73
2021/12/21 13:13:41;;;;;;;20.77;14.55;;;;;;;;;;5047138;28;20199;-72
2021/12/21 13:16:09;;;;;;;20.33;12.88;;;;;;;;;;5047697;28;20352;-73
2021/12/21 13:18:42;;;;;;;26.00;13.95;;;;;;;;;;5029537;28;20578;-74
2021/12/21 13:21:17;;;;;;;20.98;14.65;;;;;;;;;;5040270;28;20612;-74
2021/12/21 13:23:47;;;;;;;16.92;12.43;;;;;;;;;;5043712;28;20566;-73
2021/12/21 13:26:14;;;;;;;20.58;15.13;;;;;;;;;;5045966;28;20238;-73
2021/12/21 13:28:46;;;;;;;20.92;13.52;;;;;;;;;;5047768;28;20206;-74
2021/12/21 13:31:16;;;;;;;26.45;17.40;;;;;;;;;;5045214;28;20210;-74
2021/12/21 13:33:44;;;;;;;23.60;14.90;;;;;;;;;;5040262;28;20660;-73
2021/12/21 13:36:11;;;;;;;18.50;14.23;;;;;;;;;;5043065;28;20547;-74
2021/12/21 13:38:39;;;;;;;24.27;14.80;;;;;;;;;;5043390;28;20870;-73
2021/12/21 13:41:07;;;;;;;24.27;17.10;;;;;;;;;;5040918;28;20745;-74
2021/12/21 13:43:35;;;;;;;21.52;15.60;;;;;;;;;;5042515;28;21113;-74
2021/12/21 13:46:04;;;;;;;25.83;17.17;;;;;;;;;;5050929;28;20210;-74
2021/12/21 13:48:31;;;;;;;23.05;16.48;;;;;;;;;;5051633;28;20217;-73
2021/12/21 13:51:09;;;;;;;20.67;15.45;;;;;;;;;;5035505;28;20199;-73
2021/12/21 13:53:41;;;;;;;18.88;15.68;;;;;;;;;;5041348;28;20210;-74
2021/12/21 13:56:11;;;;;;;20.35;16.13;;;;;;;;;;5042262;28;20202;-73
2021/12/21 13:58:38;;;;;;;26.05;17.25;;;;;;;;;;5040855;28;20717;-75
2021/12/21 14:01:05;;;;;;;22.85;16.42;;;;;;;;;;5043253;28;20218;-73
2021/12/21 14:03:37;;;;;;;22.45;16.83;;;;;;;;;;5046188;28;20203;-75
2021/12/21 14:06:11;;;;;;;29.13;16.27;;;;;;;;;;5038898;28;20613;-74
2021/12/21 14:08:39;;;;;;;24.20;15.15;;;;;;;;;;5040743;28;20563;-74
2021/12/21 14:11:08;;;;;;;23.00;17.13;;;;;;;;;;5044451;28;20670;-73
2021/12/21 14:13:36;;;;;;;27.58;16.75;;;;;;;;;;5039679;28;20214;-74
2021/12/21 14:16:08;;;;;;;26.60;16.98;;;;;;;;;;5040129;28;20202;-74
2021/12/21 14:18:36;;;;;;;25.63;16.88;;;;;;;;;;5037192;28;20234;-74
2021/12/21 14:21:06;;;;;;;24.05;16.95;;;;;;;;;;5038628;28;20241;-73
2021/12/21 14:23:33;;;;;;;23.27;17.38;;;;;;;;;;5040616;28;20206;-73
2021/12/21 14:26:09;;;;;;;23.25;16.92;;;;;;;;;;5043393;28;20194;-75
2021/12/21 14:28:45;;;;;;;22.60;16.02;;;;;;;;;;5043065;28;20210;-73
2021/12/21 14:31:13;;;;;;;24.42;16.10;;;;;;;;;;5041422;28;20206;-75
2021/12/21 14:33:46;;;;;;;19.98;15.55;;;;;;;;;;5042694;28;20210;-74
2021/12/21 14:36:15;;;;;;;27.55;17.75;;;;;;;;;;5040991;28;20217;-73
2021/12/21 14:38:50;;;;;;;26.40;17.23;;;;;;;;;;5044712;28;20314;-73
2021/12/21 14:41:21;;;;;;;30.13;17.95;;;;;;;;;;5061805;28;20230;-73
2021/12/21 14:43:48;;;;;;;23.13;15.95;;;;;;;;;;5048109;28;20199;-72
2021/12/21 14:46:19;;;;;;;26.60;18.40;;;;;;;;;;5048189;28;20585;-73
2021/12/21 14:48:56;;;;;;;27.60;18.60;;;;;;;;;;5041774;28;20705;-72
2021/12/21 14:51:24;;;;;;;24.90;16.67;;;;;;;;;;5050040;28;20665;-73
2021/12/21 14:54:02;;;;;;;29.92;19.00;;;;;;;;;;5042641;28;20679;-74
2021/12/21 14:56:31;;;;;;;27.38;17.85;;;;;;;;;;5050403;28;20202;-73
2021/12/21 14:58:59;;;;;;;24.17;15.70;;;;;;;;;;5049982;28;20222;-73
2021/12/21 15:01:35;;;;;;;27.17;15.80;;;;;;;;;;5054024;28;20241;-75
2021/12/21 15:04:11;;;;;;;23.80;17.08;;;;;;;;;;5039404;28;20344;-72
2021/12/21 15:06:38;;;;;;;29.45;17.25;;;;;;;;;;5049077;28;20226;-73
2021/12/21 15:09:05;;;;;;;28.52;17.30;;;;;;;;;;5041656;28;20202;-74
2021/12/21 15:11:34;;;;;;;30.83;20.73;;;;;;;;;;5038807;28;20207;-72
2021/12/21 15:14:01;;;;;;;32.63;19.77;;;;;;;;;;5038455;28;20613;-73
2021/12/21 15:16:28;;;;;;;28.35;19.60;;;;;;;;;;5038838;28;20214;-73